Tiempo atmosférico en la estación meteorológica de Santiago de Compostela Aeropuerto, A Coruña (370 m.)



Fecha
DESCASC
Temp. máxima en grados centígrados (hora)
DESCASC
Temp. mínima en grados centígrados (hora)
DESCASC
Temp. media en grados centígrados
DESCASC
Racha de viento máxima en m/sg (hora)
DESCASC
Velocidad máxima media en intervalos de 10 minutos(hora)
DESCASC
Precipitaciones diarias en mm
DESCASC
Precipitaciones de 00:00 a 06:00 en mm
DESCASC
Precipitaciones de 06:00 a 12:00 en mm
DESCASC
Precipitaciones de 12:00 a 18:00 en mm
DESCASC
Precipitaciones de 18:00 a 24:00 en mm
DESCASC
15-01-2020 13 (23:20) 7.2 (00:00) 10.1 21.11 (00:30) 11.94 (01:10) 16.6 13.1 3.5 0 0
16-01-2020 13.3 (08:40) 7.9 (00:00) 10.6 20 (11:40) 11.67 (06:20) 55.4 4.7 3.3 47 0.4
03-01-2020 13.6 (15:40) 5.9 (00:00) 9.8 6.67 (01:50) 3.89 (02:30) 3.9 1.5 2.4 0 0
09-01-2020 12.1 (13:10) 5.6 (00:00) 8.9 16.39 (12:10) 9.17 (14:40) 2.8 0.4 1.6 0.8 0
18-01-2020 12.4 (13:00) 6.3 (00:00) 9.3 12.78 (12:30) 8.89 (12:50) 12.4 0 1 5 6.4
17-01-2020 9.1 (00:00) 5.3 (00:00) 7.2 10.28 (01:20) 5.56 (01:20) 1.2 0.9 0.3 0 0
14-01-2020 13.4 (14:10) 9.1 (00:00) 11.3 18.61 (15:10) 11.39 (23:59) 2.3 1.7 0.2 0.2 0.2
11-01-2020 11.4 (14:50) 1.7 (00:00) 6.5 5.83 (14:20) 3.61 (14:40) 0 0 0 0 0
25-01-2020 13.4 (16:20) 1.1 (00:00) 7.2 4.72 (17:10) 3.06 (18:20) 0 0 0 0 0
24-01-2020 13.9 (15:30) 2.5 (00:00) 8.2 4.72 (19:50) 2.78 (19:50) 0 0 0 0 0
23-01-2020 12.8 (16:50) 3 (00:00) 7.9 4.72 (00:30) 3.06 (15:00) 0 0 0 0 0
22-01-2020 12.6 (15:00) 6.5 (00:00) 9.6 10.83 (08:20) 3.61 (12:30) 1.9 0 0 0 1.9
21-01-2020 9 (13:10) 3.3 (00:00) 6.1 14.44 (19:50) 4.72 (13:20) 0 0 0 0 0
20-01-2020 8.3 (15:00) 3.3 (00:00) 5.8 16.94 (17:20) 5.28 (13:20) 0 0 0 0 0
19-01-2020 10 (14:40) 4.9 (00:00) 7.5 12.78 (13:00) 5.83 (02:00) 0 0 0 0 0
13-01-2020 9.4 (13:40) 6.5 (00:00) 7.9 16.39 (13:40) 10 (13:10) 1.5 0 0 0.5 1
12-01-2020 11.4 (16:00) 0.7 (00:00) 6 7.78 (13:40) 5.56 (19:20) 0 0 0 0 0
27-12-2019 14.9 (15:30) 1.2 (00:00) 8 4.72 (17:50) 3.33 (17:20) 0 0 0 0 0
10-01-2020 11.2 (16:20) 2.5 (00:00) 6.8 4.72 (13:30) 2.78 (01:00) 0 0 0 0 0
08-01-2020 12.1 (14:50) 7.1 (00:00) 9.6 6.67 (17:10) 3.89 (22:10) 0.5 0.2 0 0.1 0.2
07-01-2020 11 (15:40) 1.9 (00:00) 6.4 -- (--) -- (--) 0 0 0 0 0
06-01-2020 9.6 (15:10) 1 (00:00) 5.3 7.22 (15:10) 3.89 (15:50) 0 0 0 0 0
05-01-2020 11.9 (16:30) 0.9 (00:00) 6.4 -- (--) -- (--) 0 0 0 0 0
04-01-2020 9.2 (15:20) 2.7 (00:00) 5.9 7.22 (10:30) 3.33 (12:30) 0 0 0 0 0
02-01-2020 8.8 (17:20) 1.1 (00:00) 5 8.89 (16:20) 5.83 (12:40) 0 0 0 0 0
01-01-2020 12.1 (15:40) -0.6 (-00:0) 5.8 3.06 (03:10) 2.5 (22:30) 0 0 0 0 0
31-12-2019 11.3 (15:00) 4.8 (00:00) 8.1 3.61 (00:10) 2.78 (00:10) 0 0 0 0 0
30-12-2019 15.6 (15:10) 2 (00:00) 8.8 5.83 (15:30) 3.61 (18:10) 0 0 0 0 0
29-12-2019 20.1 (15:20) 7.5 (00:00) 13.8 3.61 (13:00) 2.22 (13:00) 0 0 0 0 0
28-12-2019 18.3 (15:10) 5.4 (00:00) 11.8 3.61 (10:30) 2.22 (04:10) 0 0 0 0 0

Gráficas

Temp. máximas Temp. mínimas Temp. medias Precipitaciones Rachas de viento máximas Velocidades máximas media en intervalos de 10 minutos

Datos horarios

Fecha y hora oficial Temperatura (ºC) Velocidad del viento (km/h) Dirección del viento Racha (km/h) Dirección de racha Precipitación (mm) Presión (hPa) Tendencia (hPa) Humedad (%)
2020-01-25 23:00:00 7.5 6 Sudoeste 11 Sudoeste 0 975.9 1.3 100
2020-01-25 22:00:00 7.3 3 Sudoeste 11 Sudoeste 0 975.7 1.9 97
2020-01-25 21:00:00 8.1 5 Oeste 11 Oeste 0 975.3 2 95
2020-01-25 20:00:00 9.1 3 Oeste 8 Oeste 0 974.6 1.6 83
2020-01-25 19:00:00 9.5 5 Oeste 15 Norte 0 973.8 1.1 85
2020-01-25 18:00:00 11.4 7 Oeste 17 Oeste 0 973.3 0.2 71
2020-01-25 17:00:00 12.4 8 Oeste 11 Oeste 0 973 -0.6 56
2020-01-25 16:00:00 12.7 6 Oeste 11 Noroeste 0 972.7 -1.5 50
2020-01-25 15:00:00 12.5 7 Noroeste 13 Noroeste 0 973.1 -1.4 65
2020-01-25 14:00:00 11.9 2 Noroeste 9 Este 0 973.6 -0.6 64
2020-01-25 13:00:00 10.7 2 Nordeste 8 Oeste 0 974.2 0.4 71
2020-01-25 12:00:00 7.7 4 Noroeste 9 Oeste 0 974.5 1.1 83
2020-01-25 11:00:00 4.3 8 Noroeste 13 Oeste 0 974.2 1 93
2020-01-25 10:00:00 3.2 2 Sur 8 Sur 0 973.8 0.7 99
2020-01-25 09:00:00 4.3 3 Sur 5 Sur 0 973.4 0.3 93
2020-01-25 08:00:00 4.9 0 Calma 4 Sudeste 0 973.2 0.1 92
2020-01-25 07:00:00 4.8 3 Sur 8 Sudeste 0 973.1 -0.3 89
2020-01-25 06:00:00 5.1 0 Calma 9 Sur 0 973.1 -0.6 89
2020-01-25 05:00:00 4.7 0 Calma 13 Sur 0 973.1 -1.2 96
2020-01-25 04:00:00 5 0 Calma 5 Sur 0 973.4 -1.1 89
2020-01-25 03:00:00 5.1 3 Sur 5 Sur 0 973.7 -1 93
2020-01-25 02:00:00 5.3 2 Sudeste 5 Nordeste 0 974.3 -0.7 91
2020-01-25 01:00:00 4.2 2 Noroeste 8 Noroeste 0 974.5 -0.7 97
2020-01-25 00:00:00 6.1 3 Norte 8 Norte 0 974.7 -0.5 87
2020-01-24 23:00:00 6.6 0 Calma 9 Norte 0 975 -0.2 89
2020-01-24 22:00:00 7.2 2 Nordeste 13 Noroeste 0 975.2 0.3 87
2020-01-24 21:00:00 7.1 6 Norte 13 Norte 0 975.2 0.6 87
2020-01-24 20:00:00 7.8 8 Noroeste 17 Norte 0 975.2 0.8 87
2020-01-24 19:00:00 9.7 0 Calma 11 Oeste 0 974.9 0.4 80
2020-01-24 18:00:00 10.4 8 Norte 11 Norte 0 974.6 -0.2 77
2020-01-24 17:00:00 12.7 4 Oeste 9 Oeste 0 974.4 -1 62
2020-01-24 16:00:00 12.6 5 Sudoeste 9 Sudoeste 0 974.5 -1.5 62
2020-01-24 15:00:00 12.2 4 Noroeste 8 Oeste 0 974.8 -1.8 64
2020-01-24 14:00:00 11.1 3 Sudoeste 9 Sur 0 975.4 -0.8 69
2020-01-24 13:00:00 9.8 6 Sur 13 Sur 0 976 0.2 76
2020-01-24 12:00:00 9.4 8 Sudeste 15 Sudeste 0 976.6 1.2 77
2020-01-24 11:00:00 8.1 6 Sudeste 13 Este 0 976.2 1.2 79
2020-01-24 10:00:00 6.2 8 Sudeste 13 Sudeste 0 975.8 1 83
2020-01-24 09:00:00 4.5 4 Sudeste 13 Sudeste 0 975.4 1 88
2020-01-24 08:00:00 5.6 5 Sudeste 13 Este 0 975 0.6 85
2020-01-24 07:00:00 4.9 0 Calma 9 Sudeste 0 974.8 0.3 85
2020-01-24 06:00:00 4.2 3 Este 8 Sudeste 0 974.4 -0.3 92
2020-01-24 05:00:00 4.4 3 Nordeste 9 Noroeste 0 974.4 -0.4 97
2020-01-24 04:00:00 3 5 Oeste 13 Oeste 0 974.5 -0.1 100
2020-01-24 03:00:00 5.5 0 Calma 8 Sudeste 0 974.7 0.2 86
2020-01-24 02:00:00 3.4 0 Calma 9 Noroeste 0 974.8 0.3 98
2020-01-24 01:00:00 6.4 2 Sudeste 9 Este 0 974.6 0.3 86
2020-01-24 00:00:00 6.7 0 Calma 4 Sudeste 0 974.5 0.5 83
2020-01-23 23:00:00 6.5 0 Calma 8 Sudeste 0 974.5 0.9 92
2020-01-23 22:00:00 7.7 4 Sudeste 8 Sudeste 0 974.3 1.3 83
2020-01-23 21:00:00 8 3 Nordeste 8 Nordeste 0 974 1.2 84
2020-01-23 20:00:00 6.3 4 Noroeste 13 Oeste 0 973.6 1 85
2020-01-23 19:00:00 7.2 6 Noroeste -- -- 0 973 0.5 83
2020-01-23 18:00:00 10.8 0 Calma 4 Sur 0 972.8 -0.3 67
2020-01-23 17:00:00 12.4 2 Norte 8 Este 0 972.6 -1.2 57
2020-01-23 16:00:00 12.5 2 Sudeste 15 Sur 0 972.5 -1.5 59
2020-01-23 15:00:00 12.4 11 Sur 17 Sur 0 973.1 -1.4 63
2020-01-23 14:00:00 10.4 3 Este 11 Nordeste 0 973.8 -0.7 73
2020-01-23 13:00:00 10 5 Este 15 Este 0 974 -0.2 70
2020-01-23 12:00:00 8.1 4 Este 11 Este 0 974.5 0.7 79
2020-01-23 11:00:00 5.3 4 Sudeste 13 Sudeste 0 974.5 1.4 90
2020-01-23 10:00:00 4.3 3 Nordeste 13 Este 0 974.2 0.9 89
2020-01-23 09:00:00 3.4 3 Este 13 Este 0 973.8 0.2 95
2020-01-23 08:00:00 3.4 3 Este 11 Sudeste 0 973.1 -0.6 97
2020-01-23 07:00:00 3.5 6 Sudeste 13 Sudeste 0 973.3 -0.6 98
2020-01-23 06:00:00 3.3 2 Este 9 Norte 0 973.6 -0.3 98
2020-01-23 05:00:00 4.4 2 Este 11 Este 0 973.7 -0.4 98
2020-01-23 04:00:00 4.5 2 Este 13 Sudeste 0 973.9 -0.7 99
2020-01-23 03:00:00 5.4 3 Sudeste 13 Este 0 973.9 -1.1 100
2020-01-23 02:00:00 5.9 2 Este 8 Nordeste 0 974.1 -1.1 99
2020-01-23 01:00:00 6.8 2 Nordeste 17 Norte 0 974.6 -1 97
2020-01-23 00:00:00 7.2 10 Norte 24 Nordeste 0.2 975 -1.1 97
2020-01-22 23:00:00 7.3 9 Norte 18 Nordeste 0.4 975.2 -0.7 99
2020-01-22 22:00:00 7.3 2 Nordeste 15 Nordeste 0.7 975.6 -0.4 99
2020-01-22 21:00:00 7.8 6 Norte 24 Nordeste 0.6 976.1 0.3 95
2020-01-22 20:00:00 8.3 9 Norte 24 Norte 0 975.9 0.1 85
2020-01-22 19:00:00 8.6 5 Norte 22 Nordeste 0 976 -0.3 84
2020-01-22 18:00:00 9.8 8 Nordeste 33 Este 0 975.8 -0.8 79
2020-01-22 17:00:00 10.7 12 Nordeste 35 Nordeste 0 975.8 -1.6 76
2020-01-22 16:00:00 11 8 Nordeste 39 Nordeste 0 976.3 -1.9 73
2020-01-22 15:00:00 12.3 11 Nordeste 35 Nordeste 0 976.6 -1.9 71
2020-01-22 14:00:00 11.7 13 Nordeste 35 Este 0 977.4 -1.3 74
2020-01-22 13:00:00 12 12 Nordeste 37 Nordeste 0 978.2 -0.5 70
2020-01-22 12:00:00 10.9 11 Nordeste 37 Este 0 978.5 0.1 72
2020-01-22 11:00:00 10.6 9 Nordeste 33 Nordeste 0 978.7 0.2 71
2020-01-22 10:00:00 9.4 11 Nordeste 30 Nordeste 0 978.7 0.4 76
2020-01-22 09:00:00 8.8 10 Nordeste 39 Nordeste 0 978.4 0 79
2020-01-22 08:00:00 8.4 8 Nordeste 33 Nordeste 0 978.5 -0.3 80
2020-01-22 07:00:00 8.3 8 Nordeste 35 Nordeste 0 978.3 -1 80
2020-01-22 06:00:00 7.8 10 Este 32 Este 0 978.4 -1.4 81
2020-01-22 05:00:00 7.4 7 Nordeste 32 Norte 0 978.8 -1.2 79
2020-01-22 04:00:00 7 7 Nordeste 26 Norte 0 979.3 -0.8 77
2020-01-22 03:00:00 7.3 8 Nordeste 32 Este 0 979.8 -0.6 72
2020-01-22 02:00:00 6.6 8 Este 32 Norte 0 980 -0.3 74
2020-01-22 01:00:00 6.6 9 Nordeste 32 Nordeste 0 980.1 -0.3 72
2020-01-22 00:00:00 6.8 11 Nordeste 48 Nordeste 0 980.4 0.3 72
2020-01-21 23:00:00 6.3 10 Nordeste 35 Norte 0 980.3 -0.5 75
2020-01-21 22:00:00 6.5 12 Este 41 Este 0 980.4 0.3 73
2020-01-21 21:00:00 6.6 12 Nordeste 37 Este 0 980.1 0 74
2020-01-21 20:00:00 6.6 12 Nordeste 52 Nordeste 0 980.8 0.3 77
2020-01-21 19:00:00 6.8 15 Este 45 Este 0 980.1 -0.8 77
2020-01-21 18:00:00 7 9 Nordeste 37 Norte 0 980.1 -1.3 75
2020-01-21 17:00:00 7.8 11 Nordeste 48 Nordeste 0 980.5 -1.4 74
2020-01-21 16:00:00 7.5 12 Nordeste 42 Este 0 980.9 -2.3 75
2020-01-21 15:00:00 7.9 11 Nordeste 42 Nordeste 0 981.4 -2.6 72
2020-01-21 14:00:00 8.7 14 Este 50 Este 0 981.9 -2.2 62
2020-01-21 13:00:00 8.7 13 Este 41 Este 0 983.2 -1 67
2020-01-21 12:00:00 8.2 10 Nordeste 35 Norte 0 984 -0.3 68
2020-01-21 11:00:00 6.9 10 Nordeste 33 Nordeste 0 984.1 -0.3 73
2020-01-21 10:00:00 5.5 10 Nordeste 30 Este 0 984.2 -0.4 77
2020-01-21 09:00:00 4.8 8 Este 32 Este 0 984.3 -0.5 78
2020-01-21 08:00:00 4.5 7 Nordeste 28 Este 0 984.4 -0.4 80
2020-01-21 07:00:00 4.1 4 Nordeste 22 Nordeste 0 984.6 -0.8 80
2020-01-21 06:00:00 4 7 Nordeste 32 Este 0 984.8 -0.7 77
2020-01-21 05:00:00 4.2 9 Este 33 Norte 0 984.8 -1.2 73
2020-01-21 04:00:00 3.9 8 Este 28 Nordeste 0 985.4 -1.2 74
2020-01-21 03:00:00 3.9 9 Nordeste 26 Norte 0 985.5 -1.1 73
2020-01-21 02:00:00 3.9 9 Nordeste 26 Nordeste 0 986 -0.8 70
2020-01-21 01:00:00 3.8 8 Nordeste 28 Este 0 986.6 0.3 68
2020-01-21 00:00:00 3.5 6 Nordeste 24 Nordeste 0 986.6 0.1 69
2020-01-20 23:00:00 3.8 7 Nordeste 32 Este 0 986.8 0 66
2020-01-20 22:00:00 3.8 9 Este 28 Nordeste 0 986.3 0.2 65
2020-01-20 21:00:00 4 6 Este 28 Norte 0 986.5 0.5 62
2020-01-20 20:00:00 4.4 7 Nordeste 35 Nordeste 0 986.8 1.5 61
2020-01-20 19:00:00 4.9 12 Este 42 Nordeste 0 986.1 0.3 61
2020-01-20 18:00:00 6 9 Este 61 Norte 0 986 -0.2 63
2020-01-20 17:00:00 6.9 17 Nordeste 55 Norte 0 985.3 -1.4 61
2020-01-20 16:00:00 7.8 14 Este 46 Sur 0 985.8 -2 57
2020-01-20 15:00:00 8.2 14 Nordeste 54 Este 0 986.2 -2.6 52
2020-01-20 14:00:00 7.8 13 Nordeste 55 Nordeste 0 986.7 -2.1 58
2020-01-20 13:00:00 7.5 16 Este 52 Este 0 987.8 -1.4 56
2020-01-20 12:00:00 6.3 16 Nordeste 58 Este 0 988.8 -0.4 63
2020-01-20 11:00:00 5.8 12 Nordeste 39 Nordeste 0 988.8 -0.4 66
2020-01-20 10:00:00 4.6 10 Nordeste 35 Norte 0 989.2 0.1 75
2020-01-20 09:00:00 3.4 8 Norte 28 Nordeste 0 989.2 -0.2 83
2020-01-20 08:00:00 3.9 6 Norte 26 Nordeste 0 989.2 -0.7 78
2020-01-20 07:00:00 4.4 5 Nordeste 28 Nordeste 0 989.1 -1.2 78
2020-01-20 06:00:00 4.3 7 Nordeste 28 Nordeste 0 989.4 -1.4 82
2020-01-20 05:00:00 4.4 10 Nordeste 28 Norte 0 989.9 -1.2 79
2020-01-20 04:00:00 4.3 7 Nordeste 28 Este 0 990.3 -1.2 82
2020-01-20 03:00:00 4.8 9 Nordeste 28 Norte 0 990.8 -0.6 81
2020-01-20 02:00:00 5.5 9 Nordeste 42 Este 0 991.1 -0.2 72
2020-01-20 01:00:00 5.9 8 Este 33 Nordeste 0 991.5 0.6 67
2020-01-20 00:00:00 5.5 11 Este 41 Este 0 991.4 0.4 65
2020-01-19 23:00:00 5.3 8 Nordeste 45 Norte 0 991.3 0.3 67
2020-01-19 22:00:00 5.5 12 Nordeste 41 Nordeste 0 990.9 0.4 64
2020-01-19 21:00:00 5.2 10 Nordeste 37 Nordeste 0 991 1 68
2020-01-19 20:00:00 5.3 11 Nordeste 39 Sudeste 0 991 1.2 68
2020-01-19 19:00:00 5.9 10 Nordeste 33 Norte 0 990.5 1 68
2020-01-19 18:00:00 7.3 12 Nordeste 39 Este 0 990 0.9 64
2020-01-19 17:00:00 8.7 14 Nordeste 35 Norte 0 989.8 0.1 58
2020-01-19 16:00:00 9.4 13 Nordeste 41 Este 0 989.5 -0.6 56
2020-01-19 15:00:00 9.8 12 Nordeste 37 Este 0 989.1 -0.9 58
2020-01-19 14:00:00 9.5 15 Nordeste 46 Nordeste 0 989.7 0.4 63
2020-01-19 13:00:00 9.2 16 Nordeste 46 Norte 0 990.1 1.3 66
2020-01-19 12:00:00 8.8 14 Nordeste 45 Nordeste 0 990 2.3 71
2020-01-19 11:00:00 7.5 12 Nordeste 33 Nordeste 0 989.3 2.7 75
2020-01-19 10:00:00 6.5 10 Nordeste 32 Nordeste 0 988.8 3.2 79
2020-01-19 09:00:00 6.3 9 Nordeste 35 Este 0 987.7 2.9 80
2020-01-19 08:00:00 6.9 7 Norte 30 Nordeste 0 986.6 2.3 87
2020-01-19 07:00:00 7 12 Norte 35 Norte 0 985.6 1.9 85
2020-01-19 06:00:00 7.2 13 Norte 33 Norte 0 984.8 1.8 91
2020-01-19 05:00:00 7.5 14 Norte 33 Norte 0 984.3 1.7 92
2020-01-19 04:00:00 7.8 13 Norte 42 Norte 0 983.7 1.4 96
2020-01-19 03:00:00 8 15 Norte 39 Norte 0 983 1.7 96
2020-01-19 02:00:00 7.5 21 Norte 39 Norte 0 982.6 2.1 99
2020-01-19 01:00:00 7.5 19 Norte 30 Norte 0 982.3 2.9 98
2020-01-19 00:00:00 7.5 17 Norte 30 Norte 0 981.3 2.7 95
2020-01-18 23:00:00 7.9 17 Norte 28 Norte 0 980.5 2.4 99
2020-01-18 22:00:00 8 10 Norte 17 Norte 0.4 979.4 1.7 100
2020-01-18 21:00:00 8 4 Sudeste 17 Sudoeste 2.9 978.6 1.1 100
2020-01-18 20:00:00 8.1 14 Oeste 24 Oeste 1.8 978.1 0.5 98
2020-01-18 19:00:00 8.1 10 Sudoeste 21 Oeste 1.3 977.7 0.3 97
2020-01-18 18:00:00 8.6 14 Oeste 28 Oeste 0.1 977.5 0.1 94
2020-01-18 17:00:00 9.1 14 Oeste 32 Oeste 0.6 977.6 0.3 92
2020-01-18 16:00:00 10.1 15 Oeste 32 Oeste 0 977.4 0.3 81
2020-01-18 15:00:00 10.4 23 Oeste 42 Noroeste 0.8 977.4 0.5 82
2020-01-18 14:00:00 10.7 22 Oeste 46 Oeste 2 977.3 0.7 89
2020-01-18 13:00:00 12.1 27 Oeste 46 Oeste 1.5 977.1 0.7 92
2020-01-18 12:00:00 11.7 20 Sudoeste 41 Sudoeste 1 976.9 0.2 99
2020-01-18 11:00:00 10.8 21 Sudoeste 41 Sudoeste 0 976.6 -0.7 99
2020-01-18 10:00:00 10.3 15 Sur 32 Sur 0 976.4 -1.2 94
2020-01-18 09:00:00 7.7 13 Sur 22 Sur 0 976.7 -1.6 97
2020-01-18 08:00:00 7.6 11 Sur 21 Sudeste 0 977.3 -1.6 93
2020-01-18 07:00:00 7.9 9 Sudeste 21 Sudeste 0 977.6 -2.5 83
2020-01-18 06:00:00 7.2 11 Sur 15 Sur 0 978.3 -2.8 83
2020-01-18 05:00:00 7.2 9 Sudeste 18 Sudeste 0 978.9 -3.3 80
2020-01-18 04:00:00 7 9 Sudeste 22 Sudeste 0 980.1 -3.6 80
2020-01-18 03:00:00 6.6 12 Sudeste 22 Sur 0 981.1 -3.6 85
2020-01-18 02:00:00 6.5 5 Sudeste 15 Sur 0 982.2 -3.2 88
2020-01-18 01:00:00 6.4 6 Sur 15 Sur 0 983.7 -2 92
2020-01-18 00:00:00 6.4 5 Sur 9 Sur 0 984.7 -1.5 91
2020-01-17 23:00:00 6.3 4 Sudeste 9 Sudeste 0 985.4 -0.9 92
2020-01-17 22:00:00 6.3 5 Sudeste 9 Sudeste 0 985.7 -1.2 96
2020-01-17 21:00:00 6.7 0 Calma 9 Sudeste 0 986.2 -0.6 94
2020-01-17 20:00:00 6.9 4 Sudeste 9 Sur 0 986.3 -0.7 93
2020-01-17 19:00:00 7.1 5 Sur 9 Sur 0 986.9 0 93
2020-01-17 18:00:00 7.5 4 Sur 11 Sudoeste 0 986.8 -0.3 91
2020-01-17 17:00:00 8.3 6 Sur 9 Sur 0 987 -0.4 83
2020-01-17 16:00:00 8.7 5 Sur 17 Oeste 0 986.9 -0.6 82
2020-01-17 15:00:00 8.9 10 Sudoeste 21 Sudoeste 0 987.1 -0.4 76
2020-01-17 14:00:00 8.7 12 Sudoeste 22 Sudoeste 0 987.4 0.7 80
2020-01-17 13:00:00 8.7 12 Oeste 21 Oeste 0 987.5 1.5 79
2020-01-17 12:00:00 7.8 9 Sur 13 Sur 0 987.5 2.4 87
2020-01-17 11:00:00 6.1 9 Sur 13 Sur 0 986.7 2.5 96
2020-01-17 10:00:00 6.7 9 Sudoeste 15 Sudoeste 0 986 2.3 87
2020-01-17 09:00:00 5.9 9 Sudoeste 15 Sudoeste 0 985.1 2.9 86
2020-01-17 08:00:00 5.6 10 Sudoeste 18 Oeste 0 984.2 3.2 89
2020-01-17 07:00:00 5.5 7 Oeste 37 Noroeste 0.3 983.7 2.9 92
2020-01-17 06:00:00 6.8 12 Sudoeste 21 Sudoeste 0 982.2 2.1 91
2020-01-17 05:00:00 6.3 11 Sudoeste 24 Sur 0 981 1.7 97
2020-01-17 04:00:00 6.6 14 Sur 24 Sudoeste 0 980.8 2.1 97
2020-01-17 03:00:00 6.9 12 Sudoeste 24 Sur 0.2 980.1 2.1 96
2020-01-17 02:00:00 7.4 13 Sudoeste 37 Sudoeste 0 979.3 2.2 93
2020-01-17 01:00:00 8 17 Oeste 30 Sudoeste 0.7 978.7 2 91
2020-01-17 00:00:00 9.1 14 Sudoeste 32 Oeste 0 978 1.8 95
2020-01-16 23:00:00 8.6 22 Sudoeste 39 Oeste 0.3 977.1 1.4 88
2020-01-16 22:00:00 8.8 11 Sudoeste 28 Sudoeste 0 976.7 2.5 100
2020-01-16 21:00:00 8.7 13 Sudoeste 26 Sur 0 976.2 3.5 100
2020-01-16 20:00:00 8.8 18 Sudoeste 28 Sudoeste 0 975.7 3.3 98
2020-01-16 19:00:00 8.8 15 Sudoeste 26 Sudoeste 0.1 974.2 3.5 98
2020-01-16 18:00:00 8.1 13 Sur 30 Sur 4.8 972.7 1.3 99
2020-01-16 17:00:00 8.4 17 Sudoeste 46 Oeste 7.6 972.4 -0.2 92
2020-01-16 16:00:00 10.9 23 Sur 46 Sur 4.2 970.7 -2 97
2020-01-16 15:00:00 9.9 25 Sudoeste 46 Sudoeste 10 971.4 -1.2 98
2020-01-16 14:00:00 9.6 30 Sudoeste 63 Sudoeste 15 972.6 0.1 99
2020-01-16 13:00:00 11.7 28 Sur 65 Sur 5.4 972.7 0.4 97
2020-01-16 12:00:00 12.3 34 Sur 72 Sur 1 972.6 0.3 93
2020-01-16 11:00:00 12.4 28 Sur 46 Sur 2.2 972.5 0.4 94
2020-01-16 10:00:00 13.1 36 Sur 67 Sur 0.1 972.3 0.2 86
2020-01-16 09:00:00 13.2 41 Sur 67 Sur 0 972.3 -0.2 85
2020-01-16 08:00:00 13 37 Sur 68 Sur 0 972.1 -0.8 86
2020-01-16 07:00:00 12.9 32 Sur 63 Sur 0 972.1 -1.4 88
2020-01-16 06:00:00 13 39 Sur -- -- -- 972.5 -0.8 90
2020-01-16 05:00:00 12.7 33 Sur 54 Sur 0.2 972.9 -0.9 94
2020-01-16 04:00:00 12.7 34 Sur 58 Sur 2.8 973.5 -1.6 95
2020-01-16 03:00:00 12.2 22 Sur 45 Sur 1.7 973.3 -1.9 98
2020-01-16 02:00:00 12.5 23 Sur 41 Sur 0 973.8 -1.1 86
2020-01-16 01:00:00 12 24 Sur 59 Sur 0 975.1 0.1 79
2020-01-16 00:00:00 12.6 35 Sur 67 Sur 0 975.2 -0.1 74
2020-01-15 23:00:00 12.4 28 Sur 48 Sur 0 974.9 -0.6 89
2020-01-15 22:00:00 11.2 12 Sur 22 Sur 0 975 -0.6 89
2020-01-15 21:00:00 10.4 7 Sur 15 Sur 0 975.3 -0.4 88
2020-01-15 20:00:00 9.6 7 Sur 11 Sur 0 975.5 -0.1 91
2020-01-15 19:00:00 9.4 6 Sur 13 Sur 0 975.6 0.1 91
2020-01-15 18:00:00 10.9 10 Sur 24 Sur 0 975.7 0.3 82
2020-01-15 17:00:00 11.4 15 Sur 26 Sur 0 975.6 0 79
2020-01-15 16:00:00 11.6 12 Sur 26 Sur 0 975.5 -0.3 77
2020-01-15 15:00:00 11.8 13 Sudoeste 22 Sur 0 975.4 -0.4 76
2020-01-15 14:00:00 11.2 9 Sudoeste 26 Sudoeste 0 975.6 0.1 76
2020-01-15 13:00:00 10.5 9 Sur 15 Sur 0 975.8 1.5 79
2020-01-15 12:00:00 10.8 10 Sur 15 Sur 0 975.8 2.7 80
2020-01-15 11:00:00 9.5 8 Sudoeste 13 Oeste 0 975.5 4.3 87
2020-01-15 10:00:00 7.7 8 Sudoeste 13 Sudoeste 0 974.3 4.8 98
2020-01-15 09:00:00 7.7 8 Sudoeste 13 Sudoeste 0 973.1 5.3 96
2020-01-15 08:00:00 8.3 6 Noroeste 24 Noroeste 0 971.2 4.3 96
2020-01-15 07:00:00 9.5 14 Oeste 41 Sudoeste 3.5 969.5 2.8 96
2020-01-15 06:00:00 10.9 22 Sudoeste 58 Sudoeste 0.3 967.8 1.9 95
2020-01-15 05:00:00 11.2 28 Sudoeste 67 Sudoeste 1.6 966.9 0.6 97
2020-01-15 04:00:00 10.1 19 Sudoeste 63 Sur 9.8 966.7 -0.3 98
2020-01-15 03:00:00 11.5 35 Sur 72 Sur 1 965.9 -1.3 92
2020-01-15 02:00:00 12.4 42 Sur 71 Sudoeste 0 966.3 -0.9 80
2020-01-15 01:00:00 12.1 33 Sur 76 Sur 0.4 967 -0.9 88
2020-01-15 00:00:00 12.3 41 Sur 65 Sur 0 967.2 -0.8 84
2020-01-14 23:00:00 11.8 30 Sur 54 Sur 0 967.2 -1.2 85
2020-01-14 22:00:00 11.1 27 Sur 59 Sur 0.2 967.9 -0.7 90
2020-01-14 21:00:00 11.8 34 Sur 63 Sur 0 968 -0.8 81
2020-01-14 20:00:00 11.9 35 Sur 58 Sur 0 968.4 -0.3 79
2020-01-14 19:00:00 11.9 30 Sur 58 Sudoeste 0 968.6 -0.2 78
2020-01-14 18:00:00 11.8 31 Sur 63 Sur 0.2 968.8 0 79
2020-01-14 17:00:00 12.2 30 Sur 55 Sur 0 968.7 -0.8 79
2020-01-14 16:00:00 12.4 29 Sur 67 Sur 0 968.8 -1.8 79
2020-01-14 15:00:00 12.9 28 Sudoeste 61 Sur 0 968.8 -2.7 78
2020-01-14 14:00:00 12.8 33 Sur 63 Sudoeste 0 969.5 -1.9 78
2020-01-14 13:00:00 11.7 32 Sur 61 Sur 0 970.6 -0.8 81
2020-01-14 12:00:00 11.1 30 Sur 61 Sur 0.1 971.5 0.3 83
2020-01-14 11:00:00 10.7 29 Sur 46 Sur 0 971.4 0.2 85
2020-01-14 10:00:00 10.2 22 Sur 46 Sur 0 971.4 0.4 88
2020-01-14 09:00:00 10 29 Sur 48 Sur 0 971.2 0.3 90
2020-01-14 08:00:00 9.8 26 Sur 48 Sur 0 971.2 0.2 93
2020-01-14 07:00:00 9.3 21 Sur 48 Sur 0.1 971 -0.6 97
2020-01-14 06:00:00 9.4 24 Sur 50 Sur 0 970.9 -1 95
2020-01-14 05:00:00 9.3 24 Sur 52 Sur 0 971 -1.2 96
2020-01-14 04:00:00 9.2 31 Sur 50 Sudoeste 0.4 971.6 -1.1 97
2020-01-14 03:00:00 9.2 23 Sur 52 Sur 0.7 971.9 -1 97
2020-01-14 02:00:00 9.3 30 Sur 50 Sur 0.4 972.2 -0.7 97
2020-01-14 01:00:00 9.2 32 Sur 54 Sur 0.2 972.7 -0.5 97
2020-01-14 00:00:00 9.1 28 Sur 48 Sur 0.5 972.9 -0.6 97
2020-01-13 23:00:00 8.9 19 Sudoeste 37 Sur 0.1 972.9 -1 97
2020-01-13 22:00:00 8.6 23 Sudoeste 48 Sur 0.1 973.2 -0.9 98
2020-01-13 21:00:00 8.4 28 Sur 50 Sudoeste 0 973.5 -0.4 96
2020-01-13 20:00:00 8.2 26 Sur 52 Sudoeste 0.2 973.9 -0.3 94
2020-01-13 19:00:00 8.4 24 Sur 50 Sur 0.1 974.1 -0.9 89
2020-01-13 18:00:00 7.9 28 Sur 50 Sur 0.5 973.9 -1.4 93
2020-01-13 17:00:00 8.3 32 Sur 52 Sur 0 974.2 -2.6 85
2020-01-13 16:00:00 8.5 28 Sur 58 Sur 0 975 -2.6 81
2020-01-13 15:00:00 8.9 31 Sur 59 Sudoeste 0 975.3 -2.9 78
2020-01-13 14:00:00 9 28 Sur 59 Sudoeste 0 976.8 -1.7 76
2020-01-13 13:00:00 8.7 31 Sur 55 Sur 0 977.6 -1.4 77
2020-01-13 12:00:00 8.8 34 Sur 54 Sur 0 978.2 -1.1 79
2020-01-13 11:00:00 8.2 30 Sur 50 Sur 0 978.5 -0.4 80
2020-01-13 10:00:00 7.5 26 Sur 37 Sur 0 979 -0.3 76
2020-01-13 09:00:00 7.2 18 Sur 35 Sur 0 979.3 -0.5 74
2020-01-13 08:00:00 7 18 Sur 30 Sur 0 978.9 -1.8 76
2020-01-13 07:00:00 7.1 14 Sur 28 Sur 0 979.3 -1.9 80
2020-01-13 06:00:00 6.9 11 Sur 24 Sur 0 979.8 -1.8 87
2020-01-13 05:00:00 7.3 13 Sudoeste 21 Sudoeste 0 980.7 -1.8 86
2020-01-13 04:00:00 7.6 6 Oeste 15 Sudoeste 0 981.2 -2.3 84
2020-01-13 03:00:00 7.4 11 Sudoeste 18 Sudoeste 0 981.6 -2.9 87
2020-01-13 02:00:00 7 14 Sur 22 Sur 0 982.5 -2.2 94
2020-01-13 01:00:00 7.3 12 Sur 18 Sur 0 983.5 -1.6 95
2020-01-13 00:00:00 6.7 6 Sur 9 Sur 0 984.5 -0.9 99
2020-01-12 23:00:00 7.2 6 Sur 15 Sur 0 984.7 -0.9 98
2020-01-12 22:00:00 7.5 8 Sur 17 Sudoeste 0 985.1 -0.7 97
2020-01-12 21:00:00 7.4 9 Sudoeste 22 Sudoeste 0 985.4 -0.2 99
2020-01-12 20:00:00 8.3 16 Sudoeste 28 Sudoeste 0 985.6 -0.1 90
2020-01-12 19:00:00 8.5 15 Sudoeste 24 Oeste 0 985.8 0 90
2020-01-12 18:00:00 9.3 6 Sudoeste 22 Oeste 0 985.6 -0.5 86
2020-01-12 17:00:00 11 7 Sur 18 Sur 0 985.7 -1.3 75
2020-01-12 16:00:00 11 10 Sudoeste 17 Sudoeste 0 985.8 -2.1 74
2020-01-12 15:00:00 10.3 7 Sudoeste 17 Sudoeste 0 986.1 -2.4 73
2020-01-12 14:00:00 9.7 7 Sur 28 Sur 0 987 -1.5 78
2020-01-12 13:00:00 8 4 Sur 9 Sur 0 987.9 -0.4 82
2020-01-12 12:00:00 6.8 6 Sur 9 Sur 0 988.5 0.8 76
2020-01-12 11:00:00 6.3 6 Sur 11 Sudeste 0 988.5 0.8 72
2020-01-12 10:00:00 3.4 3 Sur -- -- 0 988.3 0.9 84
2020-01-12 09:00:00 1.5 5 Sur 9 Sur 0 987.7 0.4 95
2020-01-12 08:00:00 1.5 6 Sur 9 Sur 0 987.7 0.4 94
2020-01-12 07:00:00 2 7 Sur 11 Sur 0 987.4 0 91
2020-01-12 06:00:00 1.6 4 Sur 5 Sur 0 987.3 -0.2 97
2020-01-12 05:00:00 1.4 3 Sur 8 Sur 0 987.3 -0.1 100
2020-01-12 04:00:00 2.1 4 Sur 8 Sur 0 987.4 -0.2 100
2020-01-12 03:00:00 2.4 6 Sur 8 Sur 0 987.5 -0.4 99
2020-01-12 02:00:00 3.3 5 Sur -- -- 0 987.4 -0.7 99
2020-01-12 01:00:00 3.3 3 Sudeste 9 Sur 0 987.6 -0.3 100
2020-01-12 00:00:00 4.2 3 Sur 9 Sur 0 987.9 0.1 99
2020-01-11 23:00:00 4.8 6 Sur 9 Sur 0 988.1 0.4 95
2020-01-11 22:00:00 5.8 8 Sur 11 Sudoeste 0 987.9 0.5 84
2020-01-11 21:00:00 6.1 7 Sudoeste 15 Oeste 0 987.8 0.7 81
2020-01-11 20:00:00 7.1 11 Oeste 17 Sudoeste 0 987.7 0.9 73
2020-01-11 19:00:00 7.5 5 Sudoeste 13 Sudoeste 0 987.4 0.7 71
2020-01-11 18:00:00 8.8 8 Oeste 18 Sudoeste 0 987.1 0.4 75
2020-01-11 17:00:00 10.3 9 Sudoeste 17 Sudoeste 0 986.8 -0.5 67
2020-01-11 16:00:00 10.8 9 Sudoeste 17 Sudoeste 0 986.7 -1.4 64
2020-01-11 15:00:00 11.1 12 Sudoeste 21 Sudoeste 0 986.7 -2.2 59
2020-01-11 14:00:00 10.4 9 Sur 17 Sudoeste 0 987.3 -1.5 66
2020-01-11 13:00:00 8.6 6 Sudeste 13 Sur 0 988.1 -0.2 69
2020-01-11 12:00:00 6.6 7 Sur 13 Sur 0 988.9 0.8 79
2020-01-11 11:00:00 5.2 8 Sur 11 Sudeste 0 988.8 0.4 81
2020-01-11 10:00:00 3.5 8 Sur 11 Sur 0 988.3 0.2 87
2020-01-11 09:00:00 2.1 7 Sur 11 Sur 0 988.1 0 92
2020-01-11 08:00:00 2 7 Sur 9 Sur 0 988.4 0.3 94
2020-01-11 07:00:00 2 8 Sur 9 Sur 0 988.1 -0.4 95
2020-01-11 06:00:00 2.5 8 Sur 11 Sur 0 988.1 -0.5 94
2020-01-11 05:00:00 2.4 7 Sur 9 Sur 0 988.1 -0.9 98
2020-01-11 04:00:00 2.8 0 Calma 4 Sudeste 0 988.5 -1.1 100
2020-01-11 03:00:00 3.4 0 Calma 5 Este 0 988.6 -1.2 99
2020-01-11 02:00:00 3.7 2 Este 5 Este 0 989 -0.8 98
2020-01-11 01:00:00 4.1 4 Sudeste 8 Sudeste 0 989.6 -0.2 99
2020-01-11 00:00:00 4.6 0 Calma 5 Este 0 989.8 0.3 98
2020-01-10 23:00:00 4.7 0 Calma 8 Norte 0 989.8 0.7 99
2020-01-10 22:00:00 4.2 7 Norte 13 Noroeste 0 989.8 1.1 99
2020-01-10 21:00:00 4.2 10 Oeste 11 Oeste 0 989.5 1 96
2020-01-10 20:00:00 6.5 2 Norte 9 Norte 0 989.1 0.8 88
2020-01-10 19:00:00 7.3 2 Norte -- -- 0 988.7 0.4 87
2020-01-10 18:00:00 8.2 4 Norte 8 Norte 0 988.5 -0.2 81
2020-01-10 17:00:00 9.2 2 Sur 11 Sudeste 0 988.3 -0.7 79
2020-01-10 16:00:00 10.8 4 Este 11 Nordeste 0 988.3 -1.4 68
2020-01-10 15:00:00 9.1 2 Este 13 Norte 0 988.7 -1.8 78
2020-01-10 14:00:00 9.3 5 Norte 17 Nordeste 0 989 0 79
2020-01-10 13:00:00 9.2 3 Este 9 Nordeste 0 989.7 0.3 88
2020-01-10 12:00:00 6.2 7 Noroeste 13 Oeste 0 990.5 1.8 99
2020-01-10 11:00:00 5.5 5 Sur 8 Sur 0 989 0.5 100
2020-01-10 10:00:00 2.9 3 Oeste 9 Oeste 0 989.4 1.2 100
2020-01-10 09:00:00 3.2 3 Este 5 Sudeste 0 988.7 0.9 100
2020-01-10 08:00:00 4.1 3 Sudoeste 9 Sur 0 988.5 1.5 100
2020-01-10 07:00:00 4.3 8 Norte 13 Norte 0 988.2 1.2 100
2020-01-10 06:00:00 3.3 9 Noroeste 15 Noroeste 0 987.8 1.2 100
2020-01-10 05:00:00 4.3 3 Este 5 Sudeste 0 987 0.4 100
2020-01-10 04:00:00 3.5 0 Calma 4 Noroeste 0 987 0.5 99
2020-01-10 03:00:00 4.5 0 Calma 8 Noroeste 0 986.6 0.2 96
2020-01-10 02:00:00 5.5 7 Noroeste 13 Noroeste 0 986.6 0.1 91
2020-01-10 01:00:00 5.4 10 Oeste 13 Oeste 0 986.5 0.7 95
2020-01-10 00:00:00 5.9 5 Oeste 13 Oeste 0 986.4 0.9 91
2020-01-09 23:00:00 6.8 12 Noroeste 24 Noroeste 0 986.5 1.9 88
2020-01-09 22:00:00 6.2 7 Oeste 24 Noroeste 0 985.8 1.5 88
2020-01-09 21:00:00 7.1 9 Noroeste 15 Oeste 0 985.5 2.3 85
2020-01-09 20:00:00 7.6 8 Oeste 17 Oeste 0 984.6 1.7 83
2020-01-09 19:00:00 7.8 10 Oeste 17 Sudoeste 0 984.3 1.9 80
2020-01-09 18:00:00 8 8 Oeste 32 Noroeste 0 983.2 1.1 79
2020-01-09 17:00:00 9.6 18 Noroeste 37 Oeste 0 982.9 1.9 77
2020-01-09 16:00:00 10.1 19 Oeste 46 Oeste 0 982.4 2.1 78
2020-01-09 15:00:00 9.8 32 Oeste 55 Noroeste 0 982.1 1.7 82
2020-01-09 14:00:00 10 30 Noroeste 52 Noroeste 0.6 981 1.3 93
2020-01-09 13:00:00 11.8 25 Oeste 59 Sudoeste 0.2 980.3 0.1 89
2020-01-09 12:00:00 11.9 26 Sudoeste 54 Sur 0.1 980.4 0.4 100
2020-01-09 11:00:00 11.7 23 Sudoeste 39 Sudoeste 0.1 979.7 -0.9 100
2020-01-09 10:00:00 11.2 22 Sur 37 Sur 0.8 980.2 -1 100
2020-01-09 09:00:00 11.2 21 Sur 37 Sudoeste 0.4 980 -1.2 100
2020-01-09 08:00:00 11.2 19 Sur 33 Sur 0.2 980.6 -1.4 100
2020-01-09 07:00:00 11.2 18 Sudoeste 35 Sudoeste 0 981.2 -1.4 100
2020-01-09 06:00:00 11.2 14 Sudoeste 30 Sudoeste 0.1 981.2 -1.7 100
2020-01-09 05:00:00 11.1 12 Sur 22 Sur 0 982 -1.2 100
2020-01-09 04:00:00 11.1 9 Sur 24 Sudoeste 0.3 982.6 -0.9 100
2020-01-09 03:00:00 11.1 11 Sudoeste 18 Sur 0 982.9 -1.4 100
2020-01-09 02:00:00 11.2 15 Sudoeste 26 Sur 0 983.2 -1.4 100
2020-01-09 01:00:00 11.2 15 Sur 26 Sur 0 983.5 -1.2 100
2020-01-09 00:00:00 10.9 10 Sur 18 Sur 0 984.3 -0.7 100
2020-01-08 23:00:00 10.8 9 Sudoeste 21 Sur 0 984.6 -0.8 100
2020-01-08 22:00:00 10.8 10 Sur 15 Sur 0 984.7 -0.7 100
2020-01-08 21:00:00 10.9 8 Sur 18 Sur 0 985 -0.1 100
2020-01-08 20:00:00 11.1 5 Sudoeste 15 Sudoeste 0.2 985.4 0.2 100
2020-01-08 19:00:00 11.3 6 Sudoeste 13 Sudoeste 0 985.4 0.1 100
2020-01-08 18:00:00 11.5 7 Sur 24 Sudoeste 0 985.1 -0.2 100
2020-01-08 17:00:00 11.6 8 Sur 17 Sudoeste 0 985.2 -0.7 100
2020-01-08 16:00:00 11.7 9 Sur 18 Sur 0.1 985.3 -1.4 100
2020-01-08 15:00:00 12 10 Sudoeste 18 Oeste 0 985.3 -2.1 100
2020-01-08 14:00:00 11.8 5 Sur 9 Sur 0 985.9 -1.5 100
2020-01-08 13:00:00 10.9 5 Sur 8 Sur 0 986.7 -0.4 100
2020-01-08 12:00:00 9.9 6 Sur 9 Sur 0 987.4 0.5 100
2020-01-08 11:00:00 9 6 Sur 11 Sur 0 987.4 0.7 100
2020-01-08 10:00:00 8.5 7 Sur 11 Sudeste 0 987.1 0.4 100
2020-01-08 09:00:00 8.1 8 Sur 11 Sur 0 986.9 -0.2 100
2020-01-08 08:00:00 7.4 8 Sur 11 Sur 0 986.7 -0.6 100
2020-01-08 07:00:00 7.3 6 Sur 11 Sur 0 986.7 -0.8 100
2020-01-08 06:00:00 7.5 5 Sur 9 Sur 0 987.1 -0.4 100
2020-01-08 05:00:00 7.5 4 Sur 5 Sur 0 987.3 -0.5 100
2020-01-08 04:00:00 7.2 5 Sur 11 Sur 0 987.5 -0.5 100
2020-01-08 03:00:00 7.2 7 Sur 9 Sur 0.1 987.5 -0.6 100
2020-01-08 02:00:00 7.6 5 Sur 9 Sur 0.1 987.8 -0.6 100
2020-01-08 01:00:00 8.3 3 Sur 5 Oeste 0 988 -0.6 98
2020-01-08 00:00:00 7.7 5 Sur 13 Sur 0 988.1 -0.3 100
2020-01-07 23:00:00 7.8 8 Sur 11 Sur 0 988.4 0 100
2020-01-07 22:00:00 7.4 7 Sur 11 Sur 0 988.6 0.3 100
2020-01-07 21:00:00 7.6 8 Sur 11 Sur 0 988.4 0.6 100
2020-01-07 20:00:00 7.2 3 Sudeste 8 Sudeste 0 988.4 0.6 100
2020-01-07 19:00:00 6.6 5 Oeste 13 Oeste 0 988.3 0.5 98
2020-01-07 18:00:00 8.8 4 Oeste 13 Oeste 0 987.8 -0.1 93
2020-01-07 17:00:00 10.1 8 Sudoeste 13 Oeste 0 987.8 -0.8 86
2020-01-07 16:00:00 10.3 9 Oeste 13 Oeste 0 987.8 -1.5 85
2020-01-07 15:00:00 10.3 10 Sur 17 Sur 0 987.9 -1.7 84
2020-01-07 14:00:00 9.8 8 Sur 13 Sur 0 988.6 -0.7 86
2020-01-07 13:00:00 8.6 6 Sur 11 Sur 0 989.3 0.6 82
2020-01-07 12:00:00 7 6 Sur 9 Sur 0 989.6 1.6 80
2020-01-07 11:00:00 5.9 6 Sur 9 Sudeste 0 989.3 1.4 84
2020-01-07 10:00:00 2.6 2 Sur -- -- 0 988.7 0.9 100
2020-01-07 09:00:00 2.5 4 Sur -- -- 0 988 -0.1 99
2020-01-07 08:00:00 2.5 0 Calma 5 Sur 0 987.9 -0.1 100
2020-01-07 07:00:00 2.4 4 Sur 11 Sur 0 987.8 -0.2 100
2020-01-07 06:00:00 2.9 8 Sur 11 Sur 0 988.1 0.3 100
2020-01-07 05:00:00 3.1 6 Sur 9 Sur 0 988 0.3 100
2020-01-07 04:00:00 3.5 5 Sudeste -- -- 0 988 0 100
2020-01-07 03:00:00 3.6 5 Sur 8 Sur 0 987.8 -0.2 100
2020-01-07 02:00:00 4.1 2 Sudeste 9 Sur 0 987.7 -0.1 100
2020-01-07 01:00:00 4.9 5 Sur -- -- 0 988 0.3 98
2020-01-07 00:00:00 4.8 4 Sur 8 Sur 0 988 0.2 99
2020-01-06 23:00:00 5.2 4 Sur 8 Sudeste 0 987.8 0.2 100
2020-01-06 22:00:00 5.4 5 Sur 9 Sur 0 987.7 0.4 99
2020-01-06 21:00:00 6.1 3 Sur -- -- 0 987.8 0.9 94
2020-01-06 20:00:00 7.3 4 Sudoeste -- -- 0 987.6 1.2 93
2020-01-06 19:00:00 7.9 4 Sur 11 Sur 0 987.3 1.6 92
2020-01-06 18:00:00 8.6 7 Sur 9 Sudoeste 0 986.9 1.6 88
2020-01-06 17:00:00 8.9 6 Sudoeste 21 Oeste 0 986.4 0.8 85
2020-01-06 16:00:00 9.2 12 Oeste 26 Sudoeste 0 985.7 -0.9 83
2020-01-06 15:00:00 9.4 10 Sudoeste 21 Sudoeste 0 985.3 -1.6 82
2020-01-06 14:00:00 6.8 6 Sur 17 Sur 0 985.6 -1 90
2020-01-06 13:00:00 6 8 Sur 13 Sur 0 986.6 0.5 90
2020-01-06 12:00:00 4.2 7 Sur 13 Sur 0 986.9 1.7 94
2020-01-06 11:00:00 2.9 10 Sur 13 Sur 0 986.6 1.5 97
2020-01-06 10:00:00 2.6 6 Sur 8 Sur 0 986.1 1.2 100